createdAt,value
2022-10-17T00:01:07.936Z,50.05
2022-10-17T00:03:38.806Z,51.15
2022-10-17T00:06:12.156Z,52.78
2022-10-17T00:08:41.140Z,51.00
2022-10-17T00:11:15.562Z,57.72
2022-10-17T00:13:43.736Z,62.53
2022-10-17T00:16:11.668Z,58.25
2022-10-17T00:18:39.668Z,55.25
2022-10-17T00:21:15.008Z,53.38
2022-10-17T00:23:42.937Z,60.80
2022-10-17T00:26:10.991Z,53.53
2022-10-17T00:28:39.055Z,53.75
2022-10-17T00:31:08.069Z,55.53
2022-10-17T00:33:36.719Z,52.63
2022-10-17T00:36:09.341Z,48.38
2022-10-17T00:38:37.807Z,49.00
2022-10-17T00:41:05.778Z,52.72
2022-10-17T00:44:03.227Z,46.72
2022-10-17T00:46:35.039Z,55.90
2022-10-17T00:49:10.201Z,50.97
2022-10-17T00:51:41.894Z,52.55
2022-10-17T00:54:12.921Z,50.17
2022-10-17T00:56:40.807Z,49.67
2022-10-17T00:59:11.513Z,51.33
2022-10-17T01:01:43.435Z,45.42
2022-10-17T01:04:11.488Z,54.20
2022-10-17T01:06:40.483Z,51.58
2022-10-17T01:09:08.393Z,47.58
2022-10-17T01:12:01.640Z,47.67
2022-10-17T01:15:00.677Z,49.00
2022-10-17T01:17:46.616Z,46.65
2022-10-17T01:20:51.717Z,46.90
2022-10-17T01:23:41.144Z,51.65
2022-10-17T01:26:23.100Z,52.65
2022-10-17T01:29:06.676Z,49.25
2022-10-17T01:31:49.194Z,55.53
2022-10-17T01:34:30.202Z,54.30
2022-10-17T01:37:03.930Z,54.58
2022-10-17T01:39:41.616Z,49.63
2022-10-17T01:42:43.130Z,52.50
2022-10-17T01:45:23.213Z,45.70
2022-10-17T01:47:53.582Z,50.97
2022-10-17T01:50:33.146Z,55.17
2022-10-17T01:53:16.590Z,50.95
2022-10-17T01:55:50.573Z,54.33
2022-10-17T01:58:28.181Z,50.53
2022-10-17T02:01:01.570Z,53.85
2022-10-17T02:03:34.562Z,59.00
2022-10-17T02:06:02.933Z,55.13
2022-10-17T02:08:49.431Z,54.08
2022-10-17T02:11:20.218Z,50.05
2022-10-17T02:14:25.854Z,52.05
2022-10-17T02:16:53.678Z,51.67
2022-10-17T02:19:27.683Z,54.60
2022-10-17T02:22:16.474Z,59.63
2022-10-17T02:24:55.862Z,58.13
2022-10-17T02:27:26.947Z,55.67
2022-10-17T02:30:05.847Z,54.53
2022-10-17T02:32:35.780Z,57.35
2022-10-17T02:35:07.497Z,53.85
2022-10-17T02:37:36.536Z,48.45
2022-10-17T02:40:06.763Z,55.35
2022-10-17T02:42:35.278Z,56.17
2022-10-17T02:45:05.907Z,53.58
2022-10-17T02:47:48.253Z,55.10
2022-10-17T02:50:16.404Z,59.88
2022-10-17T02:52:59.042Z,56.75
2022-10-17T02:55:33.585Z,61.17
2022-10-17T02:58:07.091Z,63.35
2022-10-17T03:00:41.858Z,63.80
2022-10-17T03:03:32.018Z,56.72
2022-10-17T03:06:02.974Z,58.78
2022-10-17T03:08:30.951Z,53.55
2022-10-17T03:10:58.852Z,55.85
2022-10-17T03:13:29.377Z,57.63
2022-10-17T03:15:58.169Z,56.40
2022-10-17T03:18:26.118Z,67.00
2022-10-17T03:20:58.793Z,68.30
2022-10-17T03:23:26.784Z,70.43
2022-10-17T03:25:54.705Z,60.75
2022-10-17T03:28:23.178Z,79.85
2022-10-17T03:30:51.214Z,88.40
2022-10-17T03:33:19.049Z,82.05
2022-10-17T03:35:46.935Z,76.65
2022-10-17T03:38:15.080Z,77.20
2022-10-17T03:40:42.945Z,72.57
2022-10-17T03:43:11.935Z,77.18
2022-10-17T03:45:41.640Z,71.75
2022-10-17T03:48:09.375Z,77.28
2022-10-17T03:50:37.344Z,71.85
2022-10-17T03:53:05.037Z,68.43
2022-10-17T03:55:33.748Z,68.72
2022-10-17T03:58:01.494Z,68.20
2022-10-17T04:00:30.005Z,72.78
2022-10-17T04:02:59.567Z,70.15
2022-10-17T04:05:28.044Z,67.45
2022-10-17T04:07:58.763Z,69.38
2022-10-17T04:10:48.846Z,68.88
2022-10-17T04:13:16.557Z,76.93
2022-10-17T04:15:58.033Z,66.88
2022-10-17T04:18:25.834Z,65.97
2022-10-17T04:20:54.400Z,72.25
2022-10-17T04:23:23.053Z,66.88
2022-10-17T04:26:03.986Z,80.40
2022-10-17T04:28:32.991Z,73.68
2022-10-17T04:31:05.875Z,81.32
2022-10-17T04:33:40.150Z,77.50
2022-10-17T04:36:14.497Z,77.40
2022-10-17T04:41:16.350Z,72.47
2022-10-17T04:43:47.060Z,70.60
2022-10-17T04:46:19.562Z,78.57
2022-10-17T04:48:47.880Z,71.45
2022-10-17T04:51:20.695Z,79.20
2022-10-17T04:54:11.212Z,72.18
2022-10-17T04:56:42.640Z,79.22
2022-10-17T04:59:10.748Z,73.85
2022-10-17T05:01:40.960Z,69.43
2022-10-17T05:04:08.629Z,69.32
2022-10-17T05:06:38.175Z,69.55
2022-10-17T05:09:24.553Z,68.70
2022-10-17T05:11:52.714Z,70.38
2022-10-17T05:14:20.553Z,68.75
2022-10-17T05:16:50.358Z,71.38
2022-10-17T05:19:18.611Z,72.45
2022-10-17T05:21:50.158Z,68.50
2022-10-17T05:24:18.108Z,68.28
2022-10-17T05:26:45.973Z,69.05
2022-10-17T05:29:14.110Z,71.95
2022-10-17T05:31:47.209Z,77.15
2022-10-17T05:34:15.023Z,71.80
2022-10-17T05:36:43.611Z,70.38
2022-10-17T05:39:14.903Z,77.75
2022-10-17T05:41:43.305Z,65.43
2022-10-17T05:44:11.007Z,67.78
2022-10-17T05:46:42.086Z,69.95
2022-10-17T05:49:19.688Z,71.13
2022-10-17T05:52:00.177Z,68.30
2022-10-17T05:54:28.356Z,72.75
2022-10-17T05:56:57.434Z,71.78
2022-10-17T05:59:29.450Z,71.60
2022-10-17T06:02:17.727Z,70.40
2022-10-17T06:04:48.558Z,64.75
2022-10-17T06:07:17.100Z,65.72
2022-10-17T06:12:18.721Z,72.60
2022-10-17T06:14:47.434Z,71.53
2022-10-17T06:17:16.867Z,69.60
2022-10-17T06:19:45.533Z,70.00
2022-10-17T06:22:15.846Z,66.57
2022-10-17T06:24:44.370Z,67.40
2022-10-17T06:27:13.460Z,60.65
2022-10-17T06:29:42.383Z,71.80
2022-10-17T06:32:14.278Z,65.13
2022-10-17T06:34:46.013Z,64.03
2022-10-17T06:37:13.915Z,66.93
2022-10-17T06:39:42.868Z,61.13
2022-10-17T06:42:21.531Z,64.15
2022-10-17T06:45:07.582Z,65.30
2022-10-17T06:48:02.112Z,59.25
2022-10-17T06:50:52.333Z,59.10
2022-10-17T06:53:25.044Z,56.53
2022-10-17T06:56:09.452Z,58.72
2022-10-17T06:58:55.656Z,55.97
2022-10-17T07:01:26.793Z,49.67
2022-10-17T07:03:58.469Z,51.42
2022-10-17T07:06:26.426Z,47.80
2022-10-17T07:08:57.193Z,46.15
2022-10-17T07:11:25.892Z,48.53
2022-10-17T07:13:54.113Z,46.60
2022-10-17T07:16:22.931Z,44.38
2022-10-17T07:18:58.797Z,46.25
2022-10-17T07:21:26.611Z,42.17
2022-10-17T07:23:54.518Z,41.88
2022-10-17T07:26:23.248Z,41.65
2022-10-17T07:28:54.306Z,39.83
2022-10-17T07:31:33.416Z,41.28
2022-10-17T07:34:01.541Z,38.70
2022-10-17T07:36:30.178Z,36.72
2022-10-17T07:38:59.918Z,38.33
2022-10-17T07:41:28.426Z,34.42
2022-10-17T07:43:56.817Z,33.10
2022-10-17T07:46:31.054Z,34.58
2022-10-17T07:48:59.297Z,35.97
2022-10-17T07:51:27.968Z,30.77
2022-10-17T07:53:55.871Z,32.15
2022-10-17T07:56:24.879Z,32.47
2022-10-17T07:58:53.807Z,30.92
2022-10-17T08:01:21.572Z,33.47
2022-10-17T08:03:49.593Z,30.90
2022-10-17T08:06:17.884Z,32.65
2022-10-17T08:08:45.781Z,31.40
2022-10-17T08:11:15.701Z,27.60
2022-10-17T08:13:43.743Z,28.48
2022-10-17T08:16:13.570Z,29.80
2022-10-17T08:18:42.963Z,29.23
2022-10-17T08:21:13.097Z,33.28
2022-10-17T08:23:41.792Z,27.02
2022-10-17T08:26:13.286Z,28.98
2022-10-17T08:28:41.779Z,27.55
2022-10-17T08:31:19.400Z,29.05
2022-10-17T08:33:48.695Z,32.08
2022-10-17T08:36:19.494Z,27.42
2022-10-17T08:38:52.471Z,28.38
2022-10-17T08:41:38.673Z,29.55
2022-10-17T08:44:09.549Z,27.05
2022-10-17T08:46:42.656Z,31.52
2022-10-17T08:49:41.620Z,29.58
2022-10-17T08:52:27.837Z,28.52
2022-10-17T08:54:56.093Z,28.45
2022-10-17T08:57:23.828Z,28.15
2022-10-17T08:59:57.048Z,29.42
2022-10-17T09:02:52.824Z,24.02
2022-10-17T09:05:26.943Z,29.70
2022-10-17T09:11:02.343Z,25.00
2022-10-17T09:14:06.830Z,27.63
2022-10-17T09:17:10.428Z,25.25
2022-10-17T09:19:59.843Z,25.00
2022-10-17T09:22:52.241Z,24.13
2022-10-17T09:25:21.432Z,26.50
2022-10-17T09:28:02.189Z,28.58
2022-10-17T09:30:49.423Z,25.80
2022-10-17T09:33:34.655Z,24.58
2022-10-17T09:36:16.551Z,29.05
2022-10-17T09:39:15.401Z,28.50
2022-10-17T09:41:48.715Z,21.27
2022-10-17T09:44:16.663Z,27.67
2022-10-17T09:47:04.590Z,24.80
2022-10-17T09:49:36.330Z,21.25
2022-10-17T09:52:10.277Z,22.42
2022-10-17T09:54:57.468Z,21.90
2022-10-17T09:57:26.409Z,21.98
2022-10-17T10:00:05.861Z,24.67
2022-10-17T10:02:41.284Z,23.13
2022-10-17T10:05:21.088Z,25.13
2022-10-17T10:08:06.224Z,23.30
2022-10-17T10:10:34.316Z,23.23
2022-10-17T10:13:28.282Z,27.42
2022-10-17T10:16:18.474Z,23.95
2022-10-17T10:18:48.728Z,21.65
2022-10-17T10:21:27.382Z,24.30
2022-10-17T10:24:09.890Z,21.95
2022-10-17T10:26:50.086Z,22.27
2022-10-17T10:29:32.545Z,23.60
2022-10-17T10:32:27.308Z,25.17
2022-10-17T10:35:08.582Z,21.45
2022-10-17T10:37:48.287Z,22.13
2022-10-17T10:40:18.641Z,24.77
2022-10-17T10:42:58.418Z,23.48
2022-10-17T10:45:48.530Z,23.92
2022-10-17T10:48:24.515Z,23.17
2022-10-17T10:51:16.454Z,21.65
2022-10-17T10:54:19.307Z,21.80
2022-10-17T10:56:56.401Z,24.58
2022-10-17T10:59:43.008Z,22.63
2022-10-17T11:02:27.722Z,24.23
2022-10-17T11:05:01.803Z,22.90
2022-10-17T11:07:45.799Z,24.85
2022-10-17T11:10:44.812Z,25.60
2022-10-17T11:13:28.960Z,24.35
2022-10-17T11:19:00.467Z,25.52
2022-10-17T11:22:05.423Z,20.70
2022-10-17T11:24:56.984Z,20.60
2022-10-17T11:27:26.249Z,24.48
2022-10-17T11:29:54.066Z,23.92
2022-10-17T11:32:32.740Z,24.70
2022-10-17T11:35:20.331Z,25.42
2022-10-17T11:38:04.280Z,24.67
2022-10-17T11:40:36.160Z,25.10
2022-10-17T11:43:14.794Z,24.38
2022-10-17T11:45:47.551Z,21.73
2022-10-17T11:48:23.520Z,24.30
2022-10-17T11:54:28.877Z,21.20
2022-10-17T11:57:13.881Z,26.52
2022-10-17T12:00:23.244Z,24.90
2022-10-17T12:03:12.070Z,22.48
2022-10-17T12:05:57.516Z,21.75
2022-10-17T12:08:41.356Z,24.63
2022-10-17T12:11:24.799Z,22.50
2022-10-17T12:13:56.934Z,24.02
2022-10-17T12:16:24.954Z,20.90
2022-10-17T12:19:01.760Z,21.73
2022-10-17T12:21:50.485Z,21.85
2022-10-17T12:24:43.197Z,23.95
2022-10-17T12:27:46.080Z,21.33
2022-10-17T12:30:19.421Z,21.98
2022-10-17T12:33:22.591Z,21.90
2022-10-17T12:35:52.482Z,21.65
2022-10-17T12:38:27.883Z,20.15
2022-10-17T12:40:57.421Z,21.17
2022-10-17T12:43:28.320Z,21.10
2022-10-17T12:46:04.028Z,21.92
2022-10-17T12:48:37.883Z,23.70
2022-10-17T12:51:48.173Z,20.65
2022-10-17T12:54:18.518Z,20.80
2022-10-17T12:56:49.430Z,20.35
2022-10-17T12:59:28.226Z,23.25
2022-10-17T13:01:59.976Z,22.60
2022-10-17T13:04:30.626Z,23.50
2022-10-17T13:07:01.102Z,21.73
2022-10-17T13:09:32.616Z,24.77
2022-10-17T13:12:10.861Z,26.65
2022-10-17T13:14:42.284Z,21.60
2022-10-17T13:17:30.774Z,17.90
2022-10-17T13:19:58.902Z,21.63
2022-10-17T13:22:32.340Z,20.15
2022-10-17T13:25:15.202Z,18.83
2022-10-17T13:27:43.465Z,22.58
2022-10-17T13:30:29.312Z,21.08
2022-10-17T13:33:00.446Z,21.17
2022-10-17T13:35:59.893Z,19.52
2022-10-17T13:38:26.771Z,21.40
2022-10-17T13:41:01.636Z,22.67
2022-10-17T13:43:33.942Z,19.90
2022-10-17T13:46:25.488Z,23.40
2022-10-17T13:48:53.887Z,19.85
2022-10-17T13:51:22.243Z,21.40
2022-10-17T13:53:49.963Z,26.15
2022-10-17T13:56:29.275Z,21.42
2022-10-17T13:59:09.458Z,21.65
2022-10-17T14:01:39.089Z,21.92
2022-10-17T14:04:11.633Z,20.98
2022-10-17T14:06:49.843Z,22.83
2022-10-17T14:09:25.184Z,21.10
2022-10-17T14:12:03.857Z,22.05
2022-10-17T14:14:51.765Z,19.88
2022-10-17T14:17:29.159Z,19.77
2022-10-17T14:23:17.529Z,20.98
2022-10-17T14:25:41.012Z,22.90
2022-10-17T14:28:12.527Z,23.33
2022-10-17T14:30:58.345Z,24.15
2022-10-17T14:33:31.610Z,21.52
2022-10-17T14:36:01.519Z,23.80
2022-10-17T14:38:30.487Z,23.15
2022-10-17T14:41:41.340Z,24.00
2022-10-17T14:46:36.230Z,21.00
2022-10-17T14:49:18.419Z,22.75
2022-10-17T14:52:14.903Z,26.65
2022-10-17T14:54:47.424Z,25.08
2022-10-17T14:57:50.852Z,29.98
2022-10-17T15:00:21.078Z,31.65
2022-10-17T15:02:50.216Z,27.05
2022-10-17T15:05:19.690Z,23.92
2022-10-17T15:07:47.526Z,25.30
2022-10-17T15:10:26.749Z,22.20
2022-10-17T15:12:59.258Z,27.75
2022-10-17T15:15:33.272Z,24.80
2022-10-17T15:18:01.386Z,26.83
2022-10-17T15:20:30.639Z,27.33
2022-10-17T15:23:01.434Z,28.60
2022-10-17T15:25:30.989Z,31.58
2022-10-17T15:27:59.073Z,28.40
2022-10-17T15:30:29.796Z,26.63
2022-10-17T15:32:57.794Z,28.63
2022-10-17T15:35:27.240Z,28.48
2022-10-17T15:37:55.371Z,29.13
2022-10-17T15:40:24.530Z,27.52
2022-10-17T15:42:52.802Z,32.30
2022-10-17T15:45:24.217Z,35.50
2022-10-17T15:48:05.281Z,35.63
2022-10-17T15:50:33.410Z,32.10
2022-10-17T15:53:01.165Z,32.67
2022-10-17T15:55:29.226Z,35.38
2022-10-17T15:57:57.038Z,36.20
2022-10-17T16:00:25.517Z,36.22
2022-10-17T16:02:53.270Z,29.38
2022-10-17T16:05:23.686Z,35.88
2022-10-17T16:07:52.175Z,34.80
2022-10-17T16:10:20.827Z,37.83
2022-10-17T16:12:50.493Z,37.47
2022-10-17T16:15:22.971Z,38.20
2022-10-17T16:17:51.866Z,44.17
2022-10-17T16:20:20.982Z,41.22
2022-10-17T16:22:49.744Z,200.00
2022-10-17T16:25:24.439Z,77.43
2022-10-17T16:27:55.034Z,86.20
2022-10-17T16:30:24.416Z,79.22
2022-10-17T16:32:52.884Z,55.45
2022-10-17T16:35:31.712Z,56.20
2022-10-17T16:38:02.603Z,84.82
2022-10-17T16:40:30.523Z,70.15
2022-10-17T16:42:59.816Z,79.97
2022-10-17T16:45:27.909Z,67.40
2022-10-17T16:47:55.861Z,68.43
2022-10-17T16:50:24.469Z,53.13
2022-10-17T16:52:52.246Z,50.17
2022-10-17T16:55:20.636Z,52.10
2022-10-17T16:57:49.286Z,46.03
2022-10-17T17:00:18.194Z,52.20
2022-10-17T17:02:48.340Z,41.33
2022-10-17T17:05:16.399Z,45.83
2022-10-17T17:07:44.143Z,43.47
2022-10-17T17:10:12.166Z,42.88
2022-10-17T17:12:39.853Z,41.97
2022-10-17T17:15:07.959Z,45.78
2022-10-17T17:17:49.719Z,42.42
2022-10-17T17:20:19.351Z,43.20
2022-10-17T17:22:47.076Z,46.83
2022-10-17T17:25:14.994Z,44.75
2022-10-17T17:27:42.668Z,46.90
2022-10-17T17:30:10.989Z,40.17
2022-10-17T17:32:38.698Z,45.28
2022-10-17T17:35:07.180Z,42.83
2022-10-17T17:37:34.962Z,40.22
2022-10-17T17:40:02.923Z,42.03
2022-10-17T17:42:30.681Z,38.92
2022-10-17T17:44:58.718Z,41.03
2022-10-17T17:47:29.864Z,40.35
2022-10-17T17:49:58.068Z,42.35
2022-10-17T17:52:25.911Z,41.20
2022-10-17T17:54:53.880Z,40.47
2022-10-17T17:57:21.833Z,46.67
2022-10-17T17:59:50.168Z,41.50
2022-10-17T18:02:17.940Z,40.58
2022-10-17T18:04:46.001Z,39.20
2022-10-17T18:07:13.959Z,44.50
2022-10-17T18:09:41.886Z,39.85
2022-10-17T18:12:09.663Z,36.08
2022-10-17T18:14:37.593Z,40.03
2022-10-17T18:17:05.268Z,42.00
2022-10-17T18:19:33.598Z,36.13
2022-10-17T18:22:01.423Z,37.53
2022-10-17T18:24:29.345Z,40.13
2022-10-17T18:26:59.823Z,39.38
2022-10-17T18:29:29.513Z,37.55
2022-10-17T18:31:57.606Z,37.58
2022-10-17T18:34:25.666Z,37.00
2022-10-17T18:36:54.068Z,40.30
2022-10-17T18:39:21.993Z,34.60
2022-10-17T18:41:49.905Z,36.03
2022-10-17T18:44:17.817Z,36.88
2022-10-17T18:49:21.301Z,36.30
2022-10-17T18:51:49.262Z,37.22
2022-10-17T18:54:20.485Z,36.47
2022-10-17T18:56:51.145Z,32.45
2022-10-17T18:59:20.220Z,40.28
2022-10-17T19:01:48.611Z,33.33
2022-10-17T19:04:17.015Z,32.28
2022-10-17T19:06:44.857Z,32.25
2022-10-17T19:09:14.443Z,37.15
2022-10-17T19:11:42.906Z,36.65
2022-10-17T19:14:15.461Z,34.17
2022-10-17T19:16:50.923Z,33.88
2022-10-17T19:19:22.487Z,34.90
2022-10-17T19:21:50.941Z,34.92
2022-10-17T19:24:22.107Z,35.35
2022-10-17T19:26:53.438Z,34.97
2022-10-17T19:29:24.277Z,39.58
2022-10-17T19:31:52.548Z,33.90
2022-10-17T19:34:20.583Z,38.17
2022-10-17T19:36:48.523Z,35.20
2022-10-17T19:39:19.352Z,32.03
2022-10-17T19:41:48.250Z,32.55
2022-10-17T19:44:16.957Z,35.92
2022-10-17T19:46:46.717Z,42.50
2022-10-17T19:49:15.417Z,37.55
2022-10-17T19:51:43.408Z,36.35
2022-10-17T19:54:11.782Z,34.55
2022-10-17T19:56:40.412Z,36.28
2022-10-17T19:59:11.356Z,36.63
2022-10-17T20:01:39.321Z,39.88
2022-10-17T20:04:08.848Z,35.00
2022-10-17T20:06:36.910Z,35.08
2022-10-17T20:09:06.036Z,39.58
2022-10-17T20:11:34.229Z,40.65
2022-10-17T20:14:02.132Z,39.03
2022-10-17T20:16:32.030Z,37.13
2022-10-17T20:19:06.095Z,37.78
2022-10-17T20:21:39.464Z,37.22
2022-10-17T20:24:12.135Z,33.67
2022-10-17T20:26:40.828Z,36.55
2022-10-17T20:29:15.410Z,35.40
2022-10-17T20:31:44.662Z,36.70
2022-10-17T20:34:15.142Z,36.97
2022-10-17T20:36:42.932Z,36.42
2022-10-17T20:39:13.061Z,34.45
2022-10-17T20:41:41.754Z,39.33
2022-10-17T20:44:10.436Z,33.50
2022-10-17T20:46:44.671Z,37.80
2022-10-17T20:49:21.326Z,36.58
2022-10-17T20:51:49.308Z,34.97
2022-10-17T20:54:17.449Z,38.35
2022-10-17T20:56:45.232Z,31.73
2022-10-17T20:59:16.123Z,35.67
2022-10-17T21:01:45.411Z,38.22
2022-10-17T21:07:02.237Z,33.63
2022-10-17T21:09:30.653Z,36.05
2022-10-17T21:11:58.677Z,33.30
2022-10-17T21:14:26.746Z,32.67
2022-10-17T21:16:54.603Z,34.08
2022-10-17T21:19:22.937Z,37.50
2022-10-17T21:21:51.013Z,35.67
2022-10-17T21:24:20.823Z,33.53
2022-10-17T21:26:55.294Z,34.90
2022-10-17T21:29:24.363Z,34.47
2022-10-17T21:31:52.887Z,35.78
2022-10-17T21:34:24.668Z,37.28
2022-10-17T21:36:52.930Z,33.53
2022-10-17T21:39:23.004Z,31.23
2022-10-17T21:41:51.645Z,35.33
2022-10-17T21:44:23.440Z,35.22
2022-10-17T21:46:52.178Z,34.33
2022-10-17T21:49:23.449Z,37.17
2022-10-17T21:51:54.414Z,33.17
2022-10-17T21:54:23.615Z,34.53
2022-10-17T21:56:51.645Z,32.28
2022-10-17T21:59:19.513Z,38.03
2022-10-17T22:01:47.415Z,33.45
2022-10-17T22:04:18.992Z,36.50
2022-10-17T22:06:51.239Z,42.17
2022-10-17T22:09:23.149Z,37.22
2022-10-17T22:11:53.721Z,36.03
2022-10-17T22:14:23.629Z,36.45
2022-10-17T22:16:51.573Z,38.80
2022-10-17T22:19:25.189Z,34.63
2022-10-17T22:21:53.616Z,39.28
2022-10-17T22:24:22.483Z,34.72
2022-10-17T22:26:51.027Z,41.70
2022-10-17T22:29:19.044Z,36.55
2022-10-17T22:31:47.042Z,34.83
2022-10-17T22:34:16.350Z,39.20
2022-10-17T22:36:44.719Z,35.90
2022-10-17T22:39:12.971Z,36.38
2022-10-17T22:41:40.693Z,35.95
2022-10-17T22:44:08.691Z,44.35
2022-10-17T22:46:36.601Z,38.53
2022-10-17T22:49:04.853Z,36.22
2022-10-17T22:51:33.025Z,40.95
2022-10-17T22:54:02.311Z,40.88
2022-10-17T22:56:30.110Z,40.38
2022-10-17T22:58:58.109Z,39.33
2022-10-17T23:01:26.510Z,40.60
2022-10-17T23:03:54.505Z,37.40
2022-10-17T23:06:22.616Z,37.03
2022-10-17T23:08:51.061Z,38.17
2022-10-17T23:11:19.144Z,39.60
2022-10-17T23:13:47.036Z,38.25
2022-10-17T23:16:14.870Z,37.70
2022-10-17T23:18:44.161Z,40.83
2022-10-17T23:21:12.146Z,36.17
2022-10-17T23:23:40.003Z,38.65
2022-10-17T23:26:12.754Z,38.10
2022-10-17T23:28:42.468Z,38.53
2022-10-17T23:31:19.393Z,40.28
2022-10-17T23:33:49.124Z,39.53
2022-10-17T23:36:19.178Z,38.42
2022-10-17T23:38:48.673Z,41.72
2022-10-17T23:41:17.265Z,39.05
2022-10-17T23:43:45.632Z,40.88
2022-10-17T23:46:13.849Z,42.38
2022-10-17T23:48:42.196Z,37.88
2022-10-17T23:51:10.774Z,45.05
2022-10-17T23:53:39.543Z,39.35
2022-10-17T23:56:08.718Z,40.63
2022-10-17T23:58:37.588Z,39.53
